createdAt,value
2023-04-07T00:02:22.376Z,71.18
2023-04-07T00:04:56.559Z,71.73
2023-04-07T00:07:29.578Z,72.07
2023-04-07T00:10:03.685Z,71.94
2023-04-07T00:12:36.793Z,72.04
2023-04-07T00:15:09.976Z,72.12
2023-04-07T00:17:42.819Z,71.71
2023-04-07T00:20:15.681Z,71.62
2023-04-07T00:22:48.368Z,71.95
2023-04-07T00:25:22.482Z,72.17
2023-04-07T00:27:55.163Z,71.71
2023-04-07T00:30:27.848Z,72.13
2023-04-07T00:33:00.773Z,71.83
2023-04-07T00:35:33.404Z,71.71
2023-04-07T00:38:06.134Z,71.84
2023-04-07T00:40:40.206Z,72.61
2023-04-07T00:43:13.220Z,71.87
2023-04-07T00:45:46.314Z,72.03
2023-04-07T00:48:19.180Z,71.92
2023-04-07T00:50:52.257Z,71.82
2023-04-07T00:53:25.344Z,71.92
2023-04-07T00:55:59.524Z,72.29
2023-04-07T00:58:32.168Z,72.46
2023-04-07T01:01:08.526Z,71.97
2023-04-07T01:03:46.520Z,72.16
2023-04-07T01:06:21.423Z,71.84
2023-04-07T01:08:55.814Z,71.71
2023-04-07T01:11:32.260Z,72.01
2023-04-07T01:14:05.865Z,71.97
2023-04-07T01:16:41.699Z,71.84
2023-04-07T01:19:17.127Z,71.72
2023-04-07T01:21:51.694Z,72.06
2023-04-07T01:24:35.944Z,72.06
2023-04-07T01:27:15.858Z,72.06
2023-04-07T01:29:50.936Z,71.92
2023-04-07T01:32:25.172Z,71.91
2023-04-07T01:34:59.215Z,71.60
2023-04-07T01:37:32.041Z,71.62
2023-04-07T01:40:05.276Z,71.38
2023-04-07T01:42:39.616Z,71.26
2023-04-07T01:45:14.265Z,71.29
2023-04-07T01:47:48.165Z,71.65
2023-04-07T01:50:22.198Z,71.52
2023-04-07T01:52:55.234Z,71.90
2023-04-07T01:55:28.017Z,72.19
2023-04-07T01:58:04.917Z,71.61
2023-04-07T02:00:39.090Z,71.88
2023-04-07T02:03:20.818Z,71.30
2023-04-07T02:05:56.414Z,71.60
2023-04-07T02:08:31.169Z,71.80
2023-04-07T02:11:07.927Z,71.47
2023-04-07T02:13:41.318Z,71.59
2023-04-07T02:16:16.208Z,71.09
2023-04-07T02:18:49.236Z,71.46
2023-04-07T02:21:22.923Z,71.46
2023-04-07T02:23:56.009Z,71.03
2023-04-07T02:26:29.160Z,71.17
2023-04-07T02:29:01.908Z,71.51
2023-04-07T02:31:36.387Z,71.20
2023-04-07T02:34:09.000Z,71.47
2023-04-07T02:36:41.781Z,71.29
2023-04-07T02:39:14.461Z,71.30
2023-04-07T02:41:47.115Z,71.41
2023-04-07T02:44:19.792Z,71.24
2023-04-07T02:46:53.896Z,70.98
2023-04-07T02:49:26.519Z,71.70
2023-04-07T02:51:59.137Z,71.51
2023-04-07T02:54:31.848Z,71.64
2023-04-07T02:57:04.551Z,71.58
2023-04-07T02:59:37.158Z,71.60
2023-04-07T03:02:11.586Z,71.43
2023-04-07T03:04:44.353Z,71.37
2023-04-07T03:07:17.080Z,71.32
2023-04-07T03:09:49.726Z,71.48
2023-04-07T03:12:22.488Z,71.19
2023-04-07T03:14:55.078Z,70.77
2023-04-07T03:17:29.458Z,70.42
2023-04-07T03:20:02.209Z,70.06
2023-04-07T03:22:35.014Z,69.21
2023-04-07T03:25:08.036Z,69.38
2023-04-07T03:27:40.740Z,68.78
2023-04-07T03:30:13.707Z,69.28
2023-04-07T03:32:47.955Z,68.95
2023-04-07T03:35:20.650Z,69.21
2023-04-07T03:37:53.402Z,69.29
2023-04-07T03:40:26.086Z,69.22
2023-04-07T03:42:58.768Z,69.35
2023-04-07T03:45:31.632Z,69.32
2023-04-07T03:48:06.124Z,69.85
2023-04-07T03:50:38.875Z,69.89
2023-04-07T03:53:11.599Z,70.25
2023-04-07T03:55:44.861Z,70.41
2023-04-07T03:58:17.665Z,70.59
2023-04-07T04:00:50.369Z,70.58
2023-04-07T04:03:24.637Z,71.13
2023-04-07T04:05:57.601Z,71.24
2023-04-07T04:08:30.487Z,71.61
2023-04-07T04:11:03.110Z,71.42
2023-04-07T04:13:36.551Z,71.80
2023-04-07T04:16:09.368Z,71.42
2023-04-07T04:18:43.556Z,71.39
2023-04-07T04:21:16.797Z,71.83
2023-04-07T04:23:49.446Z,72.01
2023-04-07T04:26:25.967Z,71.59
2023-04-07T04:28:58.747Z,71.82
2023-04-07T04:31:31.458Z,72.04
2023-04-07T04:34:05.547Z,72.45
2023-04-07T04:36:39.091Z,72.38
2023-04-07T04:39:11.735Z,72.50
2023-04-07T04:41:44.386Z,72.28
2023-04-07T04:44:17.176Z,72.39
2023-04-07T04:46:49.923Z,72.18
2023-04-07T04:49:24.302Z,72.32
2023-04-07T04:51:56.968Z,72.07
2023-04-07T04:54:30.329Z,71.47
2023-04-07T04:57:03.269Z,71.75
2023-04-07T04:59:35.901Z,71.47
2023-04-07T05:02:08.719Z,71.23
2023-04-07T05:04:43.130Z,71.24
2023-04-07T05:07:15.991Z,70.85
2023-04-07T05:09:48.700Z,71.19
2023-04-07T05:12:21.776Z,71.12
2023-04-07T05:14:54.474Z,71.20
2023-04-07T05:17:27.222Z,71.64
2023-04-07T05:20:01.230Z,71.38
2023-04-07T05:22:34.024Z,71.51
2023-04-07T05:25:07.230Z,71.43
2023-04-07T05:27:39.871Z,71.91
2023-04-07T05:30:13.122Z,72.02
2023-04-07T05:32:45.870Z,72.32
2023-04-07T05:35:20.189Z,72.32
2023-04-07T05:37:52.828Z,72.25
2023-04-07T05:40:25.718Z,72.70
2023-04-07T05:42:58.401Z,72.66
2023-04-07T05:45:31.337Z,72.98
2023-04-07T05:48:04.141Z,73.39
2023-04-07T05:50:38.577Z,73.29
2023-04-07T05:53:11.209Z,73.15
2023-04-07T05:55:43.826Z,73.04
2023-04-07T05:58:16.430Z,73.20
2023-04-07T06:00:49.088Z,73.18
2023-04-07T06:03:21.813Z,73.44
2023-04-07T06:05:56.124Z,74.19
2023-04-07T06:08:28.755Z,73.85
2023-04-07T06:11:01.871Z,73.48
2023-04-07T06:13:34.708Z,74.04
2023-04-07T06:16:07.624Z,74.40
2023-04-07T06:18:42.127Z,74.26
2023-04-07T06:21:16.504Z,74.01
2023-04-07T06:23:49.422Z,73.90
2023-04-07T06:26:23.625Z,73.50
2023-04-07T06:28:56.599Z,73.18
2023-04-07T06:31:29.538Z,73.20
2023-04-07T06:34:02.220Z,73.77
2023-04-07T06:36:36.296Z,73.18
2023-04-07T06:39:09.009Z,73.44
2023-04-07T06:41:44.132Z,73.41
2023-04-07T06:44:17.206Z,70.33
2023-04-07T06:46:53.326Z,71.36
2023-04-07T06:49:26.114Z,71.50
2023-04-07T06:52:00.375Z,73.38
2023-04-07T06:54:33.051Z,73.31
2023-04-07T06:57:06.838Z,72.27
2023-04-07T06:59:39.496Z,71.00
2023-04-07T07:02:12.474Z,71.50
2023-04-07T07:04:45.682Z,72.24
2023-04-07T07:07:19.748Z,72.64
2023-04-07T07:09:52.363Z,73.08
2023-04-07T07:12:25.298Z,72.58
2023-04-07T07:14:57.972Z,73.91
2023-04-07T07:17:31.063Z,73.50
2023-04-07T07:20:03.793Z,73.56
2023-04-07T07:22:37.800Z,73.28
2023-04-07T07:25:10.797Z,73.62
2023-04-07T07:27:43.520Z,74.22
2023-04-07T07:30:16.372Z,74.14
2023-04-07T07:32:49.648Z,74.36
2023-04-07T07:35:22.547Z,73.81
2023-04-07T07:37:56.629Z,74.20
2023-04-07T07:40:29.350Z,74.15
2023-04-07T07:43:02.020Z,73.39
2023-04-07T07:45:34.726Z,72.94
2023-04-07T07:48:07.585Z,72.87
2023-04-07T07:50:40.649Z,72.38
2023-04-07T07:53:14.759Z,73.05
2023-04-07T07:55:47.511Z,72.33
2023-04-07T07:58:20.406Z,71.94
2023-04-07T08:00:53.099Z,71.36
2023-04-07T08:03:25.861Z,70.79
2023-04-07T08:05:58.622Z,70.94
2023-04-07T08:08:32.695Z,70.98
2023-04-07T08:11:05.679Z,70.28
2023-04-07T08:13:38.392Z,69.93
2023-04-07T08:16:11.108Z,69.37
2023-04-07T08:18:43.991Z,69.72
2023-04-07T08:21:16.769Z,69.19
2023-04-07T08:23:51.112Z,69.42
2023-04-07T08:26:24.256Z,70.17
2023-04-07T08:28:57.238Z,69.90
2023-04-07T08:31:29.940Z,70.66
2023-04-07T08:34:02.735Z,69.47
2023-04-07T08:36:35.645Z,66.60
2023-04-07T08:39:09.856Z,67.50
2023-04-07T08:41:44.755Z,68.77
2023-04-07T08:44:17.989Z,69.13
2023-04-07T08:46:52.710Z,70.72
2023-04-07T08:49:26.015Z,71.15
2023-04-07T08:52:00.581Z,70.28
2023-04-07T08:54:35.208Z,70.25
2023-04-07T08:57:09.462Z,71.45
2023-04-07T08:59:44.726Z,71.83
2023-04-07T09:02:17.476Z,72.21
2023-04-07T09:04:50.532Z,72.40
2023-04-07T09:07:23.187Z,71.67
2023-04-07T09:09:58.462Z,73.23
2023-04-07T09:12:31.591Z,71.31
2023-04-07T09:15:04.872Z,73.32
2023-04-07T09:17:37.525Z,72.55
2023-04-07T09:20:10.660Z,71.71
2023-04-07T09:22:45.656Z,71.73
2023-04-07T09:25:20.607Z,72.86
2023-04-07T09:27:56.813Z,70.09
2023-04-07T09:30:30.306Z,69.87
2023-04-07T09:33:03.276Z,68.60
2023-04-07T09:35:52.322Z,70.82
2023-04-07T09:38:33.576Z,68.17
2023-04-07T09:41:08.952Z,66.27
2023-04-07T09:43:42.340Z,67.18
2023-04-07T09:46:15.946Z,65.44
2023-04-07T09:48:48.808Z,63.89
2023-04-07T09:51:22.533Z,67.39
2023-04-07T09:53:55.185Z,70.01
2023-04-07T09:56:30.481Z,71.94
2023-04-07T09:59:03.294Z,68.46
2023-04-07T10:01:37.023Z,71.29
2023-04-07T10:04:09.948Z,70.66
2023-04-07T10:06:43.839Z,70.00
2023-04-07T10:09:17.925Z,72.62
2023-04-07T10:11:53.095Z,74.82
2023-04-07T10:14:28.454Z,75.49
2023-04-07T10:17:01.697Z,72.93
2023-04-07T10:19:35.714Z,75.09
2023-04-07T10:22:08.741Z,72.67
2023-04-07T10:24:48.190Z,75.16
2023-04-07T10:27:28.502Z,74.33
2023-04-07T10:30:02.291Z,75.55
2023-04-07T10:32:46.974Z,73.11
2023-04-07T10:35:19.745Z,73.96
2023-04-07T10:38:11.787Z,72.50
2023-04-07T10:40:44.804Z,72.50
2023-04-07T10:43:37.812Z,74.28
2023-04-07T10:46:10.570Z,73.93
2023-04-07T10:48:43.378Z,74.18
2023-04-07T10:51:17.889Z,75.45
2023-04-07T10:54:27.336Z,72.74
2023-04-07T10:57:12.170Z,69.80
2023-04-07T10:59:59.747Z,69.96
2023-04-07T11:02:37.139Z,69.60
2023-04-07T11:05:10.084Z,70.01
2023-04-07T11:07:51.061Z,69.82
2023-04-07T11:10:23.934Z,70.53
2023-04-07T11:13:03.699Z,68.34
2023-04-07T11:15:39.669Z,67.12
2023-04-07T11:18:16.308Z,68.42
2023-04-07T11:20:50.811Z,70.45
2023-04-07T11:23:25.388Z,69.80
2023-04-07T11:26:01.907Z,68.99
2023-04-07T11:28:34.654Z,67.09
2023-04-07T11:31:07.410Z,67.00
2023-04-07T11:33:43.799Z,67.92
2023-04-07T11:36:27.163Z,72.68
2023-04-07T11:38:59.900Z,73.04
2023-04-07T11:41:33.896Z,72.17
2023-04-07T11:44:07.313Z,72.95
2023-04-07T11:46:53.834Z,72.05
2023-04-07T11:49:29.175Z,67.89
2023-04-07T11:52:03.153Z,66.74
2023-04-07T11:54:42.889Z,64.76
2023-04-07T11:57:15.851Z,69.38
2023-04-07T11:59:49.113Z,69.03
2023-04-07T12:02:32.302Z,71.07
2023-04-07T12:05:06.942Z,70.76
2023-04-07T12:07:40.802Z,68.05
2023-04-07T12:10:20.011Z,68.43
2023-04-07T12:12:53.546Z,69.75
2023-04-07T12:15:26.221Z,69.69
2023-04-07T12:17:59.105Z,68.27
2023-04-07T12:20:33.239Z,70.39
2023-04-07T12:23:05.942Z,71.51
2023-04-07T12:25:38.987Z,72.51
2023-04-07T12:28:11.585Z,71.31
2023-04-07T12:30:44.634Z,70.51
2023-04-07T12:33:17.373Z,67.92
2023-04-07T12:35:51.984Z,68.09
2023-04-07T12:38:24.803Z,70.66
2023-04-07T12:41:03.654Z,71.95
2023-04-07T12:43:36.544Z,70.34
2023-04-07T12:46:09.433Z,68.95
2023-04-07T12:48:42.488Z,70.31
2023-04-07T12:51:16.784Z,71.03
2023-04-07T12:53:49.817Z,70.43
2023-04-07T12:56:23.003Z,71.19
2023-04-07T12:58:55.935Z,70.87
2023-04-07T13:01:28.696Z,70.94
2023-04-07T13:04:02.107Z,70.73
2023-04-07T13:06:36.262Z,69.41
2023-04-07T13:09:08.922Z,70.42
2023-04-07T13:11:41.684Z,72.09
2023-04-07T13:14:14.323Z,73.01
2023-04-07T13:16:46.975Z,72.23
2023-04-07T13:19:19.802Z,72.81
2023-04-07T13:21:53.870Z,72.13
2023-04-07T13:24:27.387Z,73.46
2023-04-07T13:27:00.109Z,73.18
2023-04-07T13:29:32.902Z,71.98
2023-04-07T13:32:06.252Z,72.22
2023-04-07T13:34:38.895Z,72.38
2023-04-07T13:37:12.964Z,72.22
2023-04-07T13:39:45.734Z,72.57
2023-04-07T13:42:19.993Z,71.70
2023-04-07T13:44:54.582Z,72.58
2023-04-07T13:47:29.579Z,71.55
2023-04-07T13:50:02.638Z,72.15
2023-04-07T13:52:36.747Z,72.15
2023-04-07T13:55:09.958Z,71.79
2023-04-07T13:57:42.624Z,72.98
2023-04-07T14:00:15.783Z,72.21
2023-04-07T14:02:49.565Z,71.00
2023-04-07T14:05:22.649Z,71.22
2023-04-07T14:07:56.787Z,69.11
2023-04-07T14:10:29.552Z,69.69
2023-04-07T14:13:02.270Z,70.66
2023-04-07T14:15:35.192Z,69.62
2023-04-07T14:18:08.000Z,68.37
2023-04-07T14:20:41.053Z,68.73
2023-04-07T14:23:20.641Z,69.13
2023-04-07T14:25:59.462Z,68.00
2023-04-07T14:28:32.580Z,66.27
2023-04-07T14:31:05.556Z,67.66
2023-04-07T14:33:38.284Z,67.87
2023-04-07T14:36:11.307Z,69.19
2023-04-07T14:38:45.987Z,68.43
2023-04-07T14:41:18.701Z,68.28
2023-04-07T14:43:56.220Z,67.51
2023-04-07T14:46:29.011Z,67.81
2023-04-07T14:49:01.710Z,68.11
2023-04-07T14:51:34.622Z,66.93
2023-04-07T14:54:08.832Z,69.30
2023-04-07T14:56:41.500Z,68.53
2023-04-07T14:59:14.122Z,69.21
2023-04-07T15:01:46.995Z,69.32
2023-04-07T15:04:19.809Z,69.10
2023-04-07T15:06:52.594Z,70.14
2023-04-07T15:09:26.591Z,68.80
2023-04-07T15:12:00.498Z,67.81
2023-04-07T15:14:33.221Z,68.96
2023-04-07T15:17:06.034Z,70.58
2023-04-07T15:19:38.720Z,69.66
2023-04-07T15:22:11.387Z,69.31
2023-04-07T15:24:45.612Z,68.76
2023-04-07T15:27:18.938Z,70.68
2023-04-07T15:29:51.667Z,69.29
2023-04-07T15:32:24.446Z,69.07
2023-04-07T15:34:57.105Z,68.41
2023-04-07T15:37:30.050Z,69.59
2023-04-07T15:40:04.253Z,70.75
2023-04-07T15:42:41.761Z,66.92
2023-04-07T15:45:14.750Z,69.15
2023-04-07T15:47:47.467Z,69.50
2023-04-07T15:50:20.223Z,67.92
2023-04-07T15:52:53.342Z,69.37
2023-04-07T15:55:27.475Z,69.63
2023-04-07T15:58:00.373Z,70.67
2023-04-07T16:00:34.507Z,69.85
2023-04-07T16:03:07.324Z,70.72
2023-04-07T16:05:40.205Z,70.90
2023-04-07T16:08:13.938Z,70.33
2023-04-07T16:10:48.155Z,69.70
2023-04-07T16:13:21.162Z,71.36
2023-04-07T16:15:56.540Z,71.62
2023-04-07T16:18:30.280Z,68.79
2023-04-07T16:21:04.714Z,69.39
2023-04-07T16:23:37.829Z,68.88
2023-04-07T16:26:12.131Z,67.43
2023-04-07T16:28:44.827Z,68.47
2023-04-07T16:31:17.458Z,71.24
2023-04-07T16:33:51.244Z,69.72
2023-04-07T16:36:24.238Z,68.68
2023-04-07T16:38:57.677Z,68.39
2023-04-07T16:41:31.711Z,68.50
2023-04-07T16:44:04.467Z,67.96
2023-04-07T16:46:37.525Z,65.74
2023-04-07T16:49:10.862Z,67.46
2023-04-07T16:51:43.477Z,67.02
2023-04-07T16:54:16.175Z,67.68
2023-04-07T16:56:51.332Z,65.58
2023-04-07T16:59:24.112Z,66.75
2023-04-07T17:01:56.854Z,67.58
2023-04-07T17:04:29.760Z,67.98
2023-04-07T17:07:02.579Z,66.70
2023-04-07T17:09:35.930Z,67.12
2023-04-07T17:12:10.054Z,65.37
2023-04-07T17:14:42.715Z,65.61
2023-04-07T17:17:15.417Z,66.81
2023-04-07T17:19:48.392Z,65.85
2023-04-07T17:22:21.090Z,65.72
2023-04-07T17:24:53.872Z,66.51
2023-04-07T17:27:28.397Z,67.04
2023-04-07T17:30:01.167Z,67.86
2023-04-07T17:32:34.014Z,67.61
2023-04-07T17:35:07.234Z,66.78
2023-04-07T17:37:39.834Z,66.68
2023-04-07T17:40:13.093Z,66.97
2023-04-07T17:42:47.392Z,67.29
2023-04-07T17:45:20.160Z,67.86
2023-04-07T17:47:53.168Z,68.52
2023-04-07T17:50:25.915Z,68.49
2023-04-07T17:53:00.403Z,69.35
2023-04-07T17:55:33.228Z,69.27
2023-04-07T17:58:07.402Z,68.13
2023-04-07T18:00:40.097Z,69.34
2023-04-07T18:03:14.657Z,68.81
2023-04-07T18:05:47.823Z,69.68
2023-04-07T18:08:21.084Z,70.01
2023-04-07T18:10:53.722Z,70.03
2023-04-07T18:13:27.799Z,70.14
2023-04-07T18:16:00.937Z,70.18
2023-04-07T18:18:33.667Z,70.38
2023-04-07T18:21:07.100Z,70.14
2023-04-07T18:23:39.777Z,69.99
2023-04-07T18:26:12.828Z,70.47
2023-04-07T18:28:46.995Z,70.37
2023-04-07T18:31:20.216Z,70.29
2023-04-07T18:33:52.965Z,70.37
2023-04-07T18:36:27.399Z,70.19
2023-04-07T18:39:00.177Z,70.68
2023-04-07T18:41:33.296Z,70.65
2023-04-07T18:44:07.509Z,70.61
2023-04-07T18:46:40.354Z,70.47
2023-04-07T18:49:13.188Z,70.33
2023-04-07T18:51:46.946Z,70.38
2023-04-07T18:54:19.574Z,70.93
2023-04-07T18:56:52.434Z,70.83
2023-04-07T18:59:26.709Z,70.45
2023-04-07T19:01:59.645Z,70.95
2023-04-07T19:04:32.438Z,70.21
2023-04-07T19:07:05.372Z,70.37
2023-04-07T19:09:38.041Z,70.73
2023-04-07T19:12:11.403Z,70.56
2023-04-07T19:14:45.568Z,70.82
2023-04-07T19:17:18.333Z,70.76
2023-04-07T19:19:51.024Z,71.06
2023-04-07T19:22:23.741Z,71.28
2023-04-07T19:24:56.384Z,70.77
2023-04-07T19:27:29.829Z,71.06
2023-04-07T19:30:04.209Z,71.15
2023-04-07T19:32:36.880Z,71.09
2023-04-07T19:35:09.994Z,70.99
2023-04-07T19:37:42.692Z,71.49
2023-04-07T19:40:15.302Z,71.27
2023-04-07T19:42:48.053Z,70.86
2023-04-07T19:45:22.189Z,70.86
2023-04-07T19:47:55.121Z,71.16
2023-04-07T19:50:28.591Z,71.24
2023-04-07T19:53:01.531Z,71.29
2023-04-07T19:55:34.237Z,71.12
2023-04-07T19:58:06.969Z,70.53
2023-04-07T20:00:41.530Z,70.65
2023-04-07T20:03:14.432Z,71.28
2023-04-07T20:05:47.305Z,70.79
2023-04-07T20:08:19.967Z,71.17
2023-04-07T20:10:52.858Z,71.44
2023-04-07T20:13:25.671Z,71.35
2023-04-07T20:15:59.736Z,71.31
2023-04-07T20:18:32.745Z,71.37
2023-04-07T20:21:06.976Z,71.76
2023-04-07T20:23:39.682Z,71.56
2023-04-07T20:26:12.556Z,71.57
2023-04-07T20:28:45.435Z,71.55
2023-04-07T20:31:19.718Z,71.96
2023-04-07T20:33:52.823Z,71.34
2023-04-07T20:36:25.906Z,71.11
2023-04-07T20:38:58.820Z,71.06
2023-04-07T20:41:31.954Z,71.87
2023-04-07T20:44:04.726Z,71.69
2023-04-07T20:46:38.838Z,71.37
2023-04-07T20:49:11.712Z,71.84
2023-04-07T20:51:44.721Z,71.60
2023-04-07T20:54:17.588Z,72.09
2023-04-07T20:56:50.515Z,72.02
2023-04-07T20:59:23.243Z,71.74
2023-04-07T21:01:57.621Z,72.28
2023-04-07T21:04:30.946Z,72.36
2023-04-07T21:07:03.791Z,72.09
2023-04-07T21:09:36.458Z,72.44
2023-04-07T21:12:09.150Z,72.46
2023-04-07T21:14:41.978Z,71.68
2023-04-07T21:17:16.094Z,72.23
2023-04-07T21:19:49.183Z,72.48
2023-04-07T21:22:21.833Z,71.85
2023-04-07T21:24:56.164Z,72.01
2023-04-07T21:27:30.316Z,72.00
2023-04-07T21:30:04.636Z,71.85
2023-04-07T21:32:39.191Z,72.41
2023-04-07T21:35:12.749Z,71.91
2023-04-07T21:37:45.549Z,72.13
2023-04-07T21:40:18.225Z,72.46
2023-04-07T21:42:51.999Z,72.31
2023-04-07T21:45:24.705Z,72.23
2023-04-07T21:47:58.751Z,71.86
2023-04-07T21:50:31.518Z,72.26
2023-04-07T21:53:04.236Z,71.79
2023-04-07T21:55:36.994Z,72.68
2023-04-07T21:58:09.655Z,72.36
2023-04-07T22:00:42.328Z,71.84
2023-04-07T22:03:16.819Z,72.04
2023-04-07T22:05:49.772Z,72.83
2023-04-07T22:08:22.412Z,72.30
2023-04-07T22:10:55.198Z,72.21
2023-04-07T22:13:27.850Z,72.63
2023-04-07T22:16:02.272Z,71.77
2023-04-07T22:18:36.544Z,71.88
2023-04-07T22:21:09.185Z,72.58
2023-04-07T22:23:42.204Z,72.39
2023-04-07T22:26:15.355Z,72.52
2023-04-07T22:28:48.507Z,71.82
2023-04-07T22:31:21.701Z,71.63
2023-04-07T22:33:56.619Z,71.04
2023-04-07T22:36:29.774Z,71.12
2023-04-07T22:39:02.385Z,70.61
2023-04-07T22:41:35.070Z,70.74
2023-04-07T22:44:07.796Z,70.44
2023-04-07T22:46:40.537Z,71.08
2023-04-07T22:49:14.578Z,70.90
2023-04-07T22:51:48.697Z,71.18
2023-04-07T22:54:21.418Z,71.42
2023-04-07T22:56:54.147Z,71.61
2023-04-07T22:59:26.747Z,72.26
2023-04-07T23:01:59.694Z,71.95
2023-04-07T23:04:33.880Z,72.25
2023-04-07T23:07:06.824Z,72.22
2023-04-07T23:09:39.511Z,72.17
2023-04-07T23:12:12.429Z,72.54
2023-04-07T23:14:45.055Z,72.58
2023-04-07T23:17:17.775Z,72.24
2023-04-07T23:19:51.825Z,72.60
2023-04-07T23:22:24.524Z,72.60
2023-04-07T23:24:57.670Z,72.28
2023-04-07T23:27:30.437Z,72.72
2023-04-07T23:30:03.243Z,72.63
2023-04-07T23:32:36.044Z,72.57
2023-04-07T23:35:10.862Z,72.34
2023-04-07T23:37:43.938Z,72.44
2023-04-07T23:40:16.632Z,72.51
2023-04-07T23:42:49.288Z,72.48
2023-04-07T23:45:22.036Z,72.33
2023-04-07T23:47:55.006Z,72.53
2023-04-07T23:50:29.064Z,72.32
2023-04-07T23:53:01.766Z,72.25
2023-04-07T23:55:34.512Z,72.51
2023-04-07T23:58:07.195Z,72.25
